createdAt,value
2022-09-05T01:04:49.096Z,100.00
2022-09-05T01:09:09.453Z,100.00
2022-09-05T01:12:54.343Z,100.00
2022-09-05T01:21:41.075Z,100.00
2022-09-05T01:29:17.389Z,100.00
2022-09-05T01:32:06.447Z,100.00
2022-09-05T01:38:51.765Z,100.00
2022-09-05T01:42:33.473Z,100.00
2022-09-05T01:46:11.752Z,100.00
2022-09-05T01:49:50.252Z,100.00
2022-09-05T01:53:33.839Z,100.00
2022-09-05T01:57:14.428Z,100.00
2022-09-05T02:00:55.871Z,100.00
2022-09-05T02:05:10.617Z,100.00
2022-09-05T02:09:07.239Z,100.00
2022-09-05T02:12:42.725Z,100.00
2022-09-05T02:16:19.865Z,100.00
2022-09-05T02:19:54.293Z,100.00
2022-09-05T02:23:42.597Z,100.00
2022-09-05T02:28:03.791Z,100.00
2022-09-05T02:31:19.894Z,100.00
2022-09-05T02:34:47.554Z,100.00
2022-09-05T02:42:12.832Z,100.00
2022-09-05T02:45:07.358Z,100.00
2022-09-05T02:45:39.803Z,100.00
2022-09-05T02:50:09.940Z,100.00
2022-09-05T02:57:33.491Z,100.00
2022-09-05T02:57:37.226Z,100.00
2022-09-05T03:00:35.590Z,100.00
2022-09-05T03:04:27.221Z,100.00
2022-09-05T03:08:25.856Z,100.00
2022-09-05T03:12:29.231Z,100.00
2022-09-05T03:16:30.488Z,100.00
2022-09-05T03:21:11.613Z,100.00
2022-09-05T03:25:33.701Z,100.00
2022-09-05T03:29:40.684Z,100.00
2022-09-05T03:33:57.705Z,100.00
2022-09-05T03:38:10.122Z,100.00
2022-09-05T03:42:14.696Z,100.00
2022-09-05T03:46:08.375Z,100.00
2022-09-05T03:57:06.747Z,100.00
2022-09-05T03:57:28.230Z,100.00
2022-09-05T04:03:10.548Z,100.00
2022-09-05T04:08:18.634Z,100.00
2022-09-05T04:08:41.981Z,100.00
2022-09-05T04:19:38.484Z,100.00
2022-09-05T04:24:04.658Z,100.00
2022-09-05T04:28:10.074Z,100.00
2022-09-05T04:32:17.551Z,100.00
2022-09-05T04:35:39.478Z,100.00
2022-09-05T04:39:30.869Z,100.00
2022-09-05T04:43:00.845Z,100.00
2022-09-05T04:46:33.796Z,100.00
2022-09-05T04:50:10.319Z,100.00
2022-09-05T04:53:59.504Z,100.00
2022-09-05T04:57:35.805Z,100.00
2022-09-05T05:06:03.250Z,100.00
2022-09-05T05:06:19.101Z,100.00
2022-09-05T05:08:37.819Z,100.00
2022-09-05T05:17:54.511Z,100.00
2022-09-05T05:18:14.224Z,100.00
2022-09-05T05:19:17.280Z,100.00
2022-09-05T05:22:52.109Z,100.00
2022-09-05T05:26:29.082Z,100.00
2022-09-05T05:30:04.686Z,100.00
2022-09-05T05:33:38.604Z,100.00
2022-09-05T05:37:12.697Z,100.00
2022-09-05T05:40:50.809Z,100.00
2022-09-05T05:44:21.792Z,100.00
2022-09-05T05:47:54.774Z,100.00
2022-09-05T05:52:02.224Z,100.00
2022-09-05T05:55:50.801Z,100.00
2022-09-05T05:59:23.919Z,100.00
2022-09-05T06:03:52.567Z,100.00
2022-09-05T06:11:13.943Z,100.00
2022-09-05T06:14:59.827Z,97.55
2022-09-05T06:16:47.579Z,93.13
2022-09-05T06:22:09.937Z,90.60
2022-09-05T06:25:15.471Z,90.27
2022-09-05T06:28:47.101Z,89.16
2022-09-05T06:32:28.399Z,88.13
2022-09-05T06:36:18.957Z,87.47
2022-09-05T06:40:09.863Z,88.38
2022-09-05T06:43:53.065Z,85.38
2022-09-05T06:47:34.178Z,85.50
2022-09-05T06:51:44.204Z,85.03
2022-09-05T06:55:42.610Z,82.46
2022-09-05T07:00:23.313Z,80.98
2022-09-05T07:04:54.009Z,80.10
2022-09-05T07:07:47.259Z,77.33
2022-09-05T07:11:40.199Z,77.77
2022-09-05T07:15:18.932Z,76.57
2022-09-05T07:19:01.242Z,76.09
2022-09-05T07:22:50.112Z,75.65
2022-09-05T07:26:35.041Z,74.78
2022-09-05T07:30:01.722Z,74.37
2022-09-05T07:33:33.614Z,73.75
2022-09-05T07:37:14.676Z,72.04
2022-09-05T07:40:45.357Z,72.21
2022-09-05T07:44:22.133Z,70.81
2022-09-05T07:47:58.307Z,70.56
2022-09-05T07:56:46.628Z,69.86
2022-09-05T07:57:01.034Z,69.72
2022-09-05T07:58:45.985Z,68.55
2022-09-05T08:02:18.375Z,68.78
2022-09-05T08:05:54.154Z,68.13
2022-09-05T08:10:06.528Z,68.56
2022-09-05T08:13:24.048Z,67.44
2022-09-05T08:16:39.970Z,67.33
2022-09-05T08:20:29.558Z,66.73
2022-09-05T08:24:13.724Z,65.90
2022-09-05T08:27:49.082Z,65.09
2022-09-05T08:31:25.339Z,65.90
2022-09-05T08:35:02.617Z,62.04
2022-09-05T08:38:40.928Z,61.81
2022-09-05T08:42:22.920Z,61.30
2022-09-05T08:46:40.994Z,61.15
2022-09-05T08:49:57.857Z,58.70
2022-09-05T08:53:46.463Z,60.29
2022-09-05T08:57:14.351Z,60.07
2022-09-05T09:00:50.424Z,58.28
2022-09-05T09:05:02.326Z,57.65
2022-09-05T09:08:06.045Z,59.28
2022-09-05T09:11:40.805Z,57.01
2022-09-05T09:15:15.659Z,57.32
2022-09-05T09:19:09.500Z,55.16
2022-09-05T09:22:48.711Z,55.97
2022-09-05T09:26:22.470Z,55.84
2022-09-05T09:29:56.224Z,54.33
2022-09-05T09:33:31.085Z,55.51
2022-09-05T09:37:50.484Z,53.60
2022-09-05T09:41:45.405Z,56.55
2022-09-05T09:45:40.965Z,55.76
2022-09-05T09:49:34.973Z,53.80
2022-09-05T09:53:27.529Z,53.29
2022-09-05T09:57:46.247Z,52.90
2022-09-05T10:01:36.260Z,50.96
2022-09-05T10:10:39.724Z,51.03
2022-09-05T10:10:44.346Z,55.49
2022-09-05T10:13:17.681Z,58.84
2022-09-05T10:17:35.275Z,54.59
2022-09-05T10:21:32.421Z,55.21
2022-09-05T10:25:21.485Z,55.36
2022-09-05T10:29:06.629Z,57.38
2022-09-05T10:35:10.608Z,59.72
2022-09-05T10:40:39.734Z,60.81
2022-09-05T10:47:23.432Z,64.08
2022-09-05T10:51:01.403Z,63.78
2022-09-05T10:55:14.977Z,64.47
2022-09-05T11:10:53.570Z,54.07
2022-09-05T11:14:43.010Z,55.01
2022-09-05T11:18:17.883Z,55.45
2022-09-05T11:22:13.655Z,52.69
2022-09-05T11:25:40.522Z,53.47
2022-09-05T11:29:15.084Z,53.10
2022-09-05T11:38:24.015Z,51.24
2022-09-05T11:40:05.508Z,50.63
2022-09-05T11:41:04.960Z,51.91
2022-09-05T11:44:40.167Z,51.56
2022-09-05T11:48:35.883Z,53.45
2022-09-05T11:53:14.343Z,52.59
2022-09-05T11:57:33.371Z,50.16
2022-09-05T12:00:51.053Z,49.40
2022-09-05T12:05:48.751Z,49.66
2022-09-05T12:08:26.264Z,48.64
2022-09-05T12:12:06.181Z,47.78
2022-09-05T12:15:42.658Z,47.96
2022-09-05T12:19:22.910Z,48.92
2022-09-05T12:23:00.152Z,48.22
2022-09-05T12:27:43.857Z,47.94
2022-09-05T12:30:14.061Z,45.75
2022-09-05T12:36:08.149Z,47.83
2022-09-05T12:40:40.392Z,49.07
2022-09-05T12:41:38.447Z,48.89
2022-09-05T12:44:47.054Z,49.15
2022-09-05T12:48:26.268Z,46.42
2022-09-05T12:52:05.421Z,49.41
2022-09-05T12:55:39.948Z,48.76
2022-09-05T13:03:02.646Z,48.38
2022-09-05T13:03:03.379Z,50.42
2022-09-05T13:06:30.197Z,48.59
2022-09-05T13:14:46.309Z,50.04
2022-09-05T13:15:01.997Z,50.74
2022-09-05T13:17:15.730Z,51.64
2022-09-05T13:20:50.888Z,52.72
2022-09-05T13:24:27.678Z,51.77
2022-09-05T13:28:01.666Z,52.35
2022-09-05T13:38:02.352Z,52.13
2022-09-05T13:38:17.892Z,52.00
2022-09-05T13:39:28.298Z,51.88
2022-09-05T13:43:10.595Z,50.14
2022-09-05T13:46:47.611Z,50.06
2022-09-05T13:50:31.660Z,50.42
2022-09-05T13:54:24.163Z,49.66
2022-09-05T13:58:00.257Z,51.92
2022-09-05T14:02:24.541Z,48.82
2022-09-05T14:05:33.510Z,48.60
2022-09-05T14:12:49.234Z,47.59
2022-09-05T14:16:26.258Z,47.67
2022-09-05T14:20:11.987Z,49.54
2022-09-05T14:23:55.957Z,50.17
2022-09-05T14:27:32.304Z,49.39
2022-09-05T14:36:29.199Z,48.89
2022-09-05T14:37:58.325Z,49.07
2022-09-05T14:38:07.914Z,48.42
2022-09-05T14:41:42.891Z,49.88
2022-09-05T14:45:37.027Z,48.18
2022-09-05T14:49:49.325Z,48.69
2022-09-05T15:00:25.552Z,50.86
2022-09-05T15:02:48.936Z,51.12
2022-09-05T15:03:05.768Z,51.33
2022-09-05T15:06:28.152Z,51.09
2022-09-05T15:11:47.259Z,50.45
2022-09-05T15:13:02.531Z,52.34
2022-09-05T15:16:16.943Z,51.82
2022-09-05T15:20:05.899Z,51.40
2022-09-05T15:23:17.231Z,51.47
2022-09-05T15:26:30.813Z,52.74
2022-09-05T15:29:43.072Z,53.12
2022-09-05T15:32:55.038Z,52.69
2022-09-05T15:36:09.628Z,53.73
2022-09-05T15:39:31.311Z,52.23
2022-09-05T15:42:45.776Z,53.39
2022-09-05T15:46:00.502Z,52.61
2022-09-05T15:49:19.796Z,52.16
2022-09-05T15:52:44.950Z,53.12
2022-09-05T15:56:00.984Z,54.28
2022-09-05T15:59:11.619Z,53.57
2022-09-05T16:02:30.245Z,54.58
2022-09-05T16:10:28.893Z,56.18
2022-09-05T16:10:36.335Z,57.23
2022-09-05T16:12:19.542Z,58.43
2022-09-05T16:20:06.542Z,58.41
2022-09-05T16:23:24.108Z,58.69
2022-09-05T16:23:32.503Z,59.92
2022-09-05T16:25:38.443Z,59.44
2022-09-05T16:28:51.049Z,59.46
2022-09-05T16:32:27.195Z,61.84
2022-09-05T16:35:44.938Z,61.86
2022-09-05T16:39:02.522Z,62.09
2022-09-05T16:42:29.221Z,62.82
2022-09-05T16:45:46.813Z,63.04
2022-09-05T16:49:11.947Z,63.46
2022-09-05T16:52:21.623Z,64.91
2022-09-05T16:55:41.377Z,64.41
2022-09-05T16:58:58.249Z,66.46
2022-09-05T17:02:23.562Z,65.81
2022-09-05T17:05:42.370Z,66.84
2022-09-05T17:09:12.969Z,69.21
2022-09-05T17:12:21.966Z,69.73
2022-09-05T17:15:51.477Z,71.35
2022-09-05T17:18:58.306Z,72.13
2022-09-05T17:25:16.887Z,73.00
2022-09-05T17:29:16.874Z,72.74
2022-09-05T17:29:27.001Z,72.70
2022-09-05T17:32:31.615Z,72.95
2022-09-05T17:36:06.793Z,74.55
2022-09-05T17:39:45.140Z,75.29
2022-09-05T17:42:59.826Z,76.22
2022-09-05T17:46:32.982Z,76.41
2022-09-05T17:49:50.594Z,77.63
2022-09-05T17:53:26.845Z,78.04
2022-09-05T17:56:42.596Z,77.99
2022-09-05T17:59:55.330Z,76.90
2022-09-05T18:03:08.227Z,77.83
2022-09-05T18:06:40.033Z,78.61
2022-09-05T18:10:12.419Z,78.31
2022-09-05T18:13:32.669Z,78.17
2022-09-05T18:16:48.311Z,79.66
2022-09-05T18:20:15.692Z,80.57
2022-09-05T18:27:15.090Z,80.09
2022-09-05T18:30:38.437Z,79.78
2022-09-05T18:34:29.013Z,80.11
2022-09-05T18:38:50.094Z,81.03
2022-09-05T18:41:43.967Z,82.16
2022-09-05T18:45:00.400Z,81.94
2022-09-05T18:48:15.792Z,81.75
2022-09-05T18:51:35.291Z,82.60
2022-09-05T18:55:31.634Z,82.57
2022-09-05T18:58:06.414Z,83.24
2022-09-05T19:01:31.656Z,82.61
2022-09-05T19:04:50.866Z,84.18
2022-09-05T19:08:05.291Z,83.59
2022-09-05T19:11:27.880Z,85.84
2022-09-05T19:14:50.554Z,83.19
2022-09-05T19:18:26.583Z,84.21
2022-09-05T19:21:22.827Z,85.65
2022-09-05T19:24:44.824Z,84.99
2022-09-05T19:33:35.804Z,85.26
2022-09-05T19:36:57.051Z,85.09
2022-09-05T19:36:57.057Z,86.32
2022-09-05T19:37:54.181Z,86.78
2022-09-05T19:47:25.909Z,87.02
2022-09-05T19:48:02.428Z,89.01
2022-09-05T19:50:57.291Z,89.68
2022-09-05T19:54:10.919Z,90.57
2022-09-05T19:57:27.919Z,89.29
2022-09-05T20:00:42.223Z,90.97
2022-09-05T20:04:00.427Z,89.98
2022-09-05T20:07:23.771Z,90.27
2022-09-05T20:10:40.453Z,90.16
2022-09-05T20:13:52.587Z,89.22
2022-09-05T20:17:21.909Z,90.19
2022-09-05T20:20:36.605Z,90.09
2022-09-05T20:23:54.567Z,91.50
2022-09-05T20:27:08.547Z,91.93
2022-09-05T20:30:25.286Z,93.16
2022-09-05T20:33:43.630Z,94.04
2022-09-05T20:43:15.136Z,94.88
2022-09-05T20:43:29.815Z,95.33
2022-09-05T20:43:57.769Z,96.05
2022-09-05T20:49:20.880Z,95.65
2022-09-05T20:54:14.020Z,95.09
2022-09-05T21:15:52.875Z,94.70
2022-09-05T21:21:47.168Z,94.69
2022-09-05T21:25:44.410Z,93.54
2022-09-05T21:28:46.200Z,94.49
2022-09-05T21:32:00.909Z,92.04
2022-09-05T21:35:33.809Z,92.54
2022-09-05T21:38:35.180Z,92.81
2022-09-05T21:41:50.233Z,92.14
2022-09-05T21:47:38.174Z,91.88
2022-09-05T21:48:15.942Z,90.81
2022-09-05T21:51:28.058Z,91.69
2022-09-05T21:59:14.485Z,91.17
2022-09-05T21:59:25.803Z,88.87
2022-09-05T22:01:11.347Z,87.93
2022-09-05T22:04:24.192Z,86.54
2022-09-05T22:07:45.406Z,85.87
2022-09-05T22:10:56.983Z,87.55
2022-09-05T22:14:09.226Z,86.58
2022-09-05T22:17:22.361Z,85.49
2022-09-05T22:20:34.475Z,84.63
2022-09-05T22:23:53.840Z,84.03
2022-09-05T22:27:12.323Z,85.43
2022-09-05T22:30:22.501Z,84.47
2022-09-05T22:33:35.460Z,84.90
2022-09-05T22:36:50.899Z,84.25
2022-09-05T22:40:02.678Z,83.69
2022-09-05T22:43:18.647Z,84.75
2022-09-05T22:46:30.409Z,83.77
2022-09-05T22:49:42.541Z,83.74
2022-09-05T22:52:54.409Z,84.68
2022-09-05T23:15:06.876Z,83.18
2022-09-05T23:30:28.230Z,86.05
2022-09-05T23:33:51.604Z,85.53
2022-09-05T23:40:47.922Z,87.26
2022-09-05T23:44:18.258Z,86.44
2022-09-05T23:47:41.337Z,86.96
2022-09-05T23:54:34.106Z,87.08
2022-09-05T23:57:45.931Z,87.79
